sensor_id;sensor_type;location;lat;lon;timestamp;pressure;altitude;pressure_sealevel;temperature;humidity
25130;BME280;13308;50.860;13.664;2023-07-29T05:18:54;96232.72;;;19.36;100.00
25130;BME280;13308;50.860;13.664;2023-07-29T05:21:20;96236.50;;;19.33;100.00
25130;BME280;13308;50.860;13.664;2023-07-29T05:23:46;96227.41;;;19.38;100.00
25130;BME280;13308;50.860;13.664;2023-07-29T05:26:11;96223.22;;;19.48;100.00
25130;BME280;13308;50.860;13.664;2023-07-29T05:28:37;96224.16;;;19.65;100.00
25130;BME280;13308;50.860;13.664;2023-07-29T05:31:02;96224.28;;;19.76;100.00
25130;BME280;13308;50.860;13.664;2023-07-29T05:33:28;96227.19;;;19.87;100.00
25130;BME280;13308;50.860;13.664;2023-07-29T05:35:53;96224.84;;;20.05;100.00
25130;BME280;13308;50.860;13.664;2023-07-29T05:38:18;96228.72;;;20.08;100.00
25130;BME280;13308;50.860;13.664;2023-07-29T05:40:44;96223.78;;;20.03;100.00
25130;BME280;13308;50.860;13.664;2023-07-29T05:43:09;96216.06;;;20.18;100.00
25130;BME280;13308;50.860;13.664;2023-07-29T05:45:34;96211.66;;;20.37;100.00
25130;BME280;13308;50.860;13.664;2023-07-29T05:48:00;96210.56;;;20.60;100.00
25130;BME280;13308;50.860;13.664;2023-07-29T05:50:25;96209.47;;;20.52;100.00
25130;BME280;13308;50.860;13.664;2023-07-29T05:52:50;96209.34;;;20.72;100.00
25130;BME280;13308;50.860;13.664;2023-07-29T05:55:16;96205.91;;;20.88;100.00
25130;BME280;13308;50.860;13.664;2023-07-29T05:57:41;96212.50;;;20.85;100.00
25130;BME280;13308;50.860;13.664;2023-07-29T06:00:07;96217.47;;;20.70;100.00
25130;BME280;13308;50.860;13.664;2023-07-29T06:02:38;96216.34;;;20.87;100.00
25130;BME280;13308;50.860;13.664;2023-07-29T06:05:05;96216.72;;;21.06;100.00
25130;BME280;13308;50.860;13.664;2023-07-29T06:07:31;96204.91;;;20.91;100.00
25130;BME280;13308;50.860;13.664;2023-07-29T06:09:59;96217.19;;;20.99;100.00
25130;BME280;13308;50.860;13.664;2023-07-29T06:12:24;96202.66;;;21.00;100.00
25130;BME280;13308;50.860;13.664;2023-07-29T06:14:49;96204.03;;;21.16;100.00
25130;BME280;13308;50.860;13.664;2023-07-29T06:17:15;96201.50;;;21.23;100.00
25130;BME280;13308;50.860;13.664;2023-07-29T06:19:40;96207.63;;;21.22;99.22
25130;BME280;13308;50.860;13.664;2023-07-29T06:22:05;96210.25;;;21.42;99.53
25130;BME280;13308;50.860;13.664;2023-07-29T06:24:31;96212.31;;;21.47;95.46
25130;BME280;13308;50.860;13.664;2023-07-29T06:26:57;96221.47;;;21.42;95.20
25130;BME280;13308;50.860;13.664;2023-07-29T06:29:23;96219.22;;;21.51;96.59
25130;BME280;13308;50.860;13.664;2023-07-29T06:31:48;96218.47;;;21.51;95.45
25130;BME280;13308;50.860;13.664;2023-07-29T06:34:13;96223.69;;;21.80;94.74
25130;BME280;13308;50.860;13.664;2023-07-29T06:36:39;96236.50;;;22.03;90.84
25130;BME280;13308;50.860;13.664;2023-07-29T06:39:04;96233.16;;;22.04;92.01
25130;BME280;13308;50.860;13.664;2023-07-29T06:41:29;96237.72;;;21.85;92.85
25130;BME280;13308;50.860;13.664;2023-07-29T06:43:55;96243.09;;;21.89;93.33
25130;BME280;13308;50.860;13.664;2023-07-29T06:46:21;96229.84;;;21.84;92.96
25130;BME280;13308;50.860;13.664;2023-07-29T06:48:46;96225.63;;;21.63;93.88
25130;BME280;13308;50.860;13.664;2023-07-29T06:51:11;96225.41;;;21.66;94.50
25130;BME280;13308;50.860;13.664;2023-07-29T06:53:37;96227.91;;;21.59;94.23
25130;BME280;13308;50.860;13.664;2023-07-29T06:56:02;96225.38;;;21.61;94.13
25130;BME280;13308;50.860;13.664;2023-07-29T06:58:28;96232.94;;;22.08;91.12
25130;BME280;13308;50.860;13.664;2023-07-29T07:00:53;96218.56;;;21.73;92.74
25130;BME280;13308;50.860;13.664;2023-07-29T07:03:18;96232.31;;;21.71;92.91
25130;BME280;13308;50.860;13.664;2023-07-29T07:05:44;96219.88;;;21.94;92.73
25130;BME280;13308;50.860;13.664;2023-07-29T07:08:09;96220.44;;;22.09;91.77
25130;BME280;13308;50.860;13.664;2023-07-29T07:10:35;96219.06;;;23.31;82.36
25130;BME280;13308;50.860;13.664;2023-07-29T07:13:00;96213.25;;;24.56;79.30
25130;BME280;13308;50.860;13.664;2023-07-29T07:15:25;96211.03;;;25.93;67.22
25130;BME280;13308;50.860;13.664;2023-07-29T07:17:51;96195.75;;;25.40;71.35
25130;BME280;13308;50.860;13.664;2023-07-29T07:20:17;96204.03;;;24.85;73.19
25130;BME280;13308;50.860;13.664;2023-07-29T07:22:42;96188.44;;;23.68;74.05
25130;BME280;13308;50.860;13.664;2023-07-29T07:25:08;96184.88;;;23.62;76.02
25130;BME280;13308;50.860;13.664;2023-07-29T07:27:33;96194.41;;;24.05;75.51
25130;BME280;13308;50.860;13.664;2023-07-29T07:29:58;96209.06;;;24.68;71.28
25130;BME280;13308;50.860;13.664;2023-07-29T07:32:24;96215.16;;;26.42;65.74
25130;BME280;13308;50.860;13.664;2023-07-29T07:34:49;96206.94;;;25.88;62.75
25130;BME280;13308;50.860;13.664;2023-07-29T07:37:15;96201.81;;;25.02;67.14
25130;BME280;13308;50.860;13.664;2023-07-29T07:39:40;96201.69;;;24.24;70.49
25130;BME280;13308;50.860;13.664;2023-07-29T07:42:05;96191.81;;;23.61;73.59
25130;BME280;13308;50.860;13.664;2023-07-29T07:44:31;96193.94;;;23.44;74.40
25130;BME280;13308;50.860;13.664;2023-07-29T07:46:56;96187.00;;;23.50;73.26
25130;BME280;13308;50.860;13.664;2023-07-29T07:49:22;96192.72;;;23.80;72.91
25130;BME280;13308;50.860;13.664;2023-07-29T07:51:47;96186.97;;;23.56;75.73
25130;BME280;13308;50.860;13.664;2023-07-29T07:54:13;96190.66;;;23.40;72.76
25130;BME280;13308;50.860;13.664;2023-07-29T07:56:38;96178.91;;;23.82;73.54
25130;BME280;13308;50.860;13.664;2023-07-29T07:59:03;96182.81;;;24.14;70.50
25130;BME280;13308;50.860;13.664;2023-07-29T08:01:37;96178.63;;;23.85;72.45
25130;BME280;13308;50.860;13.664;2023-07-29T08:04:03;96172.09;;;24.07;73.09
25130;BME280;13308;50.860;13.664;2023-07-29T08:06:28;96171.28;;;23.71;74.29
25130;BME280;13308;50.860;13.664;2023-07-29T08:08:54;96162.84;;;24.12;73.58
25130;BME280;13308;50.860;13.664;2023-07-29T08:11:19;96164.47;;;25.57;68.34
25130;BME280;13308;50.860;13.664;2023-07-29T08:13:44;96173.78;;;27.15;63.30
25130;BME280;13308;50.860;13.664;2023-07-29T08:16:10;96172.72;;;27.44;61.61
25130;BME280;13308;50.860;13.664;2023-07-29T08:18:35;96163.31;;;26.52;63.06
25130;BME280;13308;50.860;13.664;2023-07-29T08:21:00;96164.91;;;26.48;62.83
25130;BME280;13308;50.860;13.664;2023-07-29T08:23:33;96160.13;;;25.93;63.53
25130;BME280;13308;50.860;13.664;2023-07-29T08:26:01;96159.75;;;26.02;64.39
25130;BME280;13308;50.860;13.664;2023-07-29T08:28:38;96156.25;;;24.92;67.03
25130;BME280;13308;50.860;13.664;2023-07-29T08:31:04;96150.63;;;24.87;70.01
25130;BME280;13308;50.860;13.664;2023-07-29T08:33:29;96149.59;;;24.66;70.31
25130;BME280;13308;50.860;13.664;2023-07-29T08:35:55;96152.75;;;25.05;69.68
25130;BME280;13308;50.860;13.664;2023-07-29T08:38:20;96140.88;;;25.12;67.54
25130;BME280;13308;50.860;13.664;2023-07-29T08:41:06;96158.41;;;25.05;67.70
25130;BME280;13308;50.860;13.664;2023-07-29T08:43:37;96141.72;;;25.07;69.13
25130;BME280;13308;50.860;13.664;2023-07-29T08:46:03;96158.88;;;24.61;70.63
25130;BME280;13308;50.860;13.664;2023-07-29T08:48:39;96165.31;;;24.21;72.75
25130;BME280;13308;50.860;13.664;2023-07-29T08:51:05;96154.69;;;24.38;70.90
25130;BME280;13308;50.860;13.664;2023-07-29T08:53:31;96165.06;;;24.54;71.54
25130;BME280;13308;50.860;13.664;2023-07-29T08:55:57;96156.38;;;24.52;71.24
25130;BME280;13308;50.860;13.664;2023-07-29T08:58:24;96169.94;;;24.83;68.67
25130;BME280;13308;50.860;13.664;2023-07-29T09:00:50;96163.53;;;24.53;69.89
25130;BME280;13308;50.860;13.664;2023-07-29T09:03:15;96166.59;;;24.25;72.03
25130;BME280;13308;50.860;13.664;2023-07-29T09:05:41;96168.47;;;24.12;70.39
25130;BME280;13308;50.860;13.664;2023-07-29T09:08:06;96169.75;;;24.75;70.62
25130;BME280;13308;50.860;13.664;2023-07-29T09:10:36;96157.91;;;25.49;65.50
25130;BME280;13308;50.860;13.664;2023-07-29T09:13:02;96159.78;;;25.17;66.04
25130;BME280;13308;50.860;13.664;2023-07-29T09:15:29;96158.75;;;25.20;67.59
25130;BME280;13308;50.860;13.664;2023-07-29T09:17:56;96164.00;;;25.10;66.86
25130;BME280;13308;50.860;13.664;2023-07-29T09:20:26;96164.63;;;25.46;65.64
25130;BME280;13308;50.860;13.664;2023-07-29T09:22:53;96169.84;;;24.94;67.58
25130;BME280;13308;50.860;13.664;2023-07-29T09:25:29;96159.69;;;25.28;67.25
25130;BME280;13308;50.860;13.664;2023-07-29T09:28:01;96162.69;;;24.87;67.43
25130;BME280;13308;50.860;13.664;2023-07-29T09:30:32;96155.53;;;25.10;66.61
25130;BME280;13308;50.860;13.664;2023-07-29T09:32:58;96156.69;;;24.72;67.86
25130;BME280;13308;50.860;13.664;2023-07-29T09:35:33;96158.69;;;24.77;67.67
25130;BME280;13308;50.860;13.664;2023-07-29T09:37:59;96154.47;;;24.65;69.61
25130;BME280;13308;50.860;13.664;2023-07-29T09:40:24;96148.88;;;25.08;67.24
25130;BME280;13308;50.860;13.664;2023-07-29T09:42:51;96149.19;;;25.23;65.73
25130;BME280;13308;50.860;13.664;2023-07-29T09:45:21;96150.63;;;25.11;67.35
25130;BME280;13308;50.860;13.664;2023-07-29T09:47:46;96153.22;;;24.61;68.18
25130;BME280;13308;50.860;13.664;2023-07-29T09:50:12;96159.00;;;24.74;69.26
25130;BME280;13308;50.860;13.664;2023-07-29T09:52:38;96151.41;;;25.11;71.48
25130;BME280;13308;50.860;13.664;2023-07-29T09:55:03;96153.28;;;24.50;72.26
25130;BME280;13308;50.860;13.664;2023-07-29T09:57:29;96155.16;;;24.95;72.64
25130;BME280;13308;50.860;13.664;2023-07-29T09:59:56;96155.00;;;25.12;71.93
25130;BME280;13308;50.860;13.664;2023-07-29T10:02:22;96147.47;;;25.20;72.10
25130;BME280;13308;50.860;13.664;2023-07-29T10:04:48;96152.06;;;24.75;72.65
25130;BME280;13308;50.860;13.664;2023-07-29T10:07:15;96151.59;;;24.71;73.63
25130;BME280;13308;50.860;13.664;2023-07-29T10:09:41;96149.97;;;24.51;73.42
25130;BME280;13308;50.860;13.664;2023-07-29T10:12:09;96143.00;;;24.58;75.78
25130;BME280;13308;50.860;13.664;2023-07-29T10:14:35;96135.13;;;24.45;74.71
25130;BME280;13308;50.860;13.664;2023-07-29T10:17:02;96129.59;;;25.12;73.48
25130;BME280;13308;50.860;13.664;2023-07-29T10:19:28;96133.56;;;25.83;73.36
25130;BME280;13308;50.860;13.664;2023-07-29T10:21:55;96128.00;;;25.59;70.23
25130;BME280;13308;50.860;13.664;2023-07-29T10:24:24;96124.91;;;25.57;70.53
25130;BME280;13308;50.860;13.664;2023-07-29T10:27:01;96137.28;;;25.35;65.98
25130;BME280;13308;50.860;13.664;2023-07-29T10:29:38;96145.84;;;25.30;67.28
25130;BME280;13308;50.860;13.664;2023-07-29T10:32:04;96162.28;;;24.78;70.01
25130;BME280;13308;50.860;13.664;2023-07-29T10:34:31;96166.72;;;23.63;76.40
25130;BME280;13308;50.860;13.664;2023-07-29T10:36:58;96160.03;;;23.03;80.94
25130;BME280;13308;50.860;13.664;2023-07-29T10:39:25;96170.06;;;21.89;85.48
25130;BME280;13308;50.860;13.664;2023-07-29T10:41:59;96153.91;;;21.45;91.34
25130;BME280;13308;50.860;13.664;2023-07-29T10:47:25;96127.34;;;20.77;100.00
25130;BME280;13308;50.860;13.664;2023-07-29T10:49:53;96130.59;;;20.28;100.00
25130;BME280;13308;50.860;13.664;2023-07-29T10:55:02;96144.25;;;20.51;100.00
25130;BME280;13308;50.860;13.664;2023-07-29T10:57:36;96144.88;;;20.30;100.00
25130;BME280;13308;50.860;13.664;2023-07-29T11:00:03;96125.75;;;20.28;100.00
25130;BME280;13308;50.860;13.664;2023-07-29T11:02:35;96122.75;;;20.37;100.00
25130;BME280;13308;50.860;13.664;2023-07-29T11:05:16;96122.97;;;20.76;100.00
25130;BME280;13308;50.860;13.664;2023-07-29T11:07:48;96120.22;;;20.87;100.00
25130;BME280;13308;50.860;13.664;2023-07-29T11:10:14;96120.81;;;20.91;100.00
25130;BME280;13308;50.860;13.664;2023-07-29T11:12:46;96130.06;;;21.08;100.00
25130;BME280;13308;50.860;13.664;2023-07-29T11:15:21;96118.13;;;21.29;100.00
25130;BME280;13308;50.860;13.664;2023-07-29T11:17:55;96114.06;;;21.25;100.00
25130;BME280;13308;50.860;13.664;2023-07-29T11:20:25;96111.81;;;21.62;100.00
25130;BME280;13308;50.860;13.664;2023-07-29T11:22:57;96110.84;;;21.92;100.00
25130;BME280;13308;50.860;13.664;2023-07-29T11:25:25;96108.31;;;22.11;100.00
25130;BME280;13308;50.860;13.664;2023-07-29T11:27:53;96101.91;;;22.21;100.00
25130;BME280;13308;50.860;13.664;2023-07-29T11:30:19;96111.88;;;22.11;100.00
25130;BME280;13308;50.860;13.664;2023-07-29T11:32:45;96101.63;;;22.36;100.00
25130;BME280;13308;50.860;13.664;2023-07-29T11:35:13;96101.50;;;22.91;100.00
25130;BME280;13308;50.860;13.664;2023-07-29T11:37:40;96104.22;;;23.24;100.00
25130;BME280;13308;50.860;13.664;2023-07-29T11:40:07;96114.91;;;23.36;100.00
25130;BME280;13308;50.860;13.664;2023-07-29T11:42:36;96104.13;;;23.40;100.00
25130;BME280;13308;50.860;13.664;2023-07-29T11:45:03;96101.69;;;23.20;99.52
25130;BME280;13308;50.860;13.664;2023-07-29T11:47:32;96107.84;;;23.08;100.00
25130;BME280;13308;50.860;13.664;2023-07-29T11:50:01;96107.31;;;23.09;100.00
25130;BME280;13308;50.860;13.664;2023-07-29T11:52:27;96107.09;;;23.02;98.40
25130;BME280;13308;50.860;13.664;2023-07-29T11:54:53;96111.13;;;23.23;98.89
25130;BME280;13308;50.860;13.664;2023-07-29T11:57:19;96110.88;;;23.15;90.06
25130;BME280;13308;50.860;13.664;2023-07-29T11:59:46;96114.69;;;23.29;88.76
25130;BME280;13308;50.860;13.664;2023-07-29T12:02:17;96110.66;;;23.13;83.86
25130;BME280;13308;50.860;13.664;2023-07-29T12:04:46;96110.66;;;23.08;83.39
25130;BME280;13308;50.860;13.664;2023-07-29T12:07:13;96097.06;;;23.17;80.84
25130;BME280;13308;50.860;13.664;2023-07-29T12:09:40;96110.09;;;23.26;84.29
25130;BME280;13308;50.860;13.664;2023-07-29T12:12:06;96117.97;;;23.38;80.88
25130;BME280;13308;50.860;13.664;2023-07-29T12:14:32;96109.28;;;23.36;78.62
25130;BME280;13308;50.860;13.664;2023-07-29T12:17:02;96104.91;;;23.35;80.53
25130;BME280;13308;50.860;13.664;2023-07-29T12:19:35;96098.63;;;23.99;79.56
25130;BME280;13308;50.860;13.664;2023-07-29T12:22:06;96095.69;;;23.81;81.64
25130;BME280;13308;50.860;13.664;2023-07-29T12:24:33;96089.50;;;23.88;79.78
25130;BME280;13308;50.860;13.664;2023-07-29T12:26:58;96093.59;;;23.87;79.91
25130;BME280;13308;50.860;13.664;2023-07-29T12:29:24;96092.81;;;23.51;81.92
25130;BME280;13308;50.860;13.664;2023-07-29T12:31:57;96088.19;;;23.54;80.32
25130;BME280;13308;50.860;13.664;2023-07-29T12:34:25;96086.88;;;23.55;82.96
25130;BME280;13308;50.860;13.664;2023-07-29T12:36:51;96072.09;;;23.84;80.76
25130;BME280;13308;50.860;13.664;2023-07-29T12:39:25;96069.00;;;23.93;82.27
25130;BME280;13308;50.860;13.664;2023-07-29T12:41:54;96071.69;;;24.04;80.15
25130;BME280;13308;50.860;13.664;2023-07-29T12:44:20;96072.72;;;24.30;79.67
25130;BME280;13308;50.860;13.664;2023-07-29T12:46:45;96063.06;;;24.74;80.07
25130;BME280;13308;50.860;13.664;2023-07-29T12:49:11;96053.78;;;24.79;75.99
25130;BME280;13308;50.860;13.664;2023-07-29T12:51:36;96059.09;;;25.62;74.58
25130;BME280;13308;50.860;13.664;2023-07-29T12:54:03;96054.63;;;25.53;72.22
25130;BME280;13308;50.860;13.664;2023-07-29T12:56:29;96055.91;;;26.47;71.48
25130;BME280;13308;50.860;13.664;2023-07-29T12:58:56;96054.97;;;25.63;69.48
25130;BME280;13308;50.860;13.664;2023-07-29T13:01:22;96047.53;;;25.28;73.17
25130;BME280;13308;50.860;13.664;2023-07-29T13:03:48;96060.75;;;25.89;69.12
25130;BME280;13308;50.860;13.664;2023-07-29T13:06:14;96042.94;;;26.25;68.12
25130;BME280;13308;50.860;13.664;2023-07-29T13:08:40;96044.19;;;26.82;66.48
25130;BME280;13308;50.860;13.664;2023-07-29T13:11:06;96043.16;;;26.27;67.09
25130;BME280;13308;50.860;13.664;2023-07-29T13:13:31;96041.28;;;26.17;69.00
25130;BME280;13308;50.860;13.664;2023-07-29T13:15:57;96024.59;;;25.13;69.88
25130;BME280;13308;50.860;13.664;2023-07-29T13:18:23;96025.91;;;24.94;70.56
25130;BME280;13308;50.860;13.664;2023-07-29T13:20:48;96029.75;;;25.33;69.88
25130;BME280;13308;50.860;13.664;2023-07-29T13:23:14;96039.13;;;26.23;66.09
25130;BME280;13308;50.860;13.664;2023-07-29T13:25:40;96051.09;;;26.42;67.81
25130;BME280;13308;50.860;13.664;2023-07-29T13:28:05;96068.72;;;26.35;67.56
25130;BME280;13308;50.860;13.664;2023-07-29T13:30:31;96075.13;;;25.91;66.83
25130;BME280;13308;50.860;13.664;2023-07-29T13:32:56;96069.81;;;25.32;67.25
25130;BME280;13308;50.860;13.664;2023-07-29T13:35:21;96080.31;;;24.70;66.33
25130;BME280;13308;50.860;13.664;2023-07-29T13:37:47;96075.75;;;24.86;68.78
25130;BME280;13308;50.860;13.664;2023-07-29T13:40:12;96081.78;;;26.25;66.64
25130;BME280;13308;50.860;13.664;2023-07-29T13:42:37;96080.75;;;27.06;59.11
25130;BME280;13308;50.860;13.664;2023-07-29T13:45:04;96083.28;;;27.82;60.01
25130;BME280;13308;50.860;13.664;2023-07-29T13:47:30;96090.22;;;27.94;56.15
25130;BME280;13308;50.860;13.664;2023-07-29T13:49:55;96087.59;;;28.57;55.45
25130;BME280;13308;50.860;13.664;2023-07-29T13:52:20;96091.94;;;29.42;53.05
25130;BME280;13308;50.860;13.664;2023-07-29T13:54:45;96094.75;;;30.36;51.07
25130;BME280;13308;50.860;13.664;2023-07-29T13:57:11;96090.94;;;30.33;50.51
25130;BME280;13308;50.860;13.664;2023-07-29T13:59:36;96084.00;;;29.84;50.67
25130;BME280;13308;50.860;13.664;2023-07-29T14:02:05;96073.59;;;29.94;51.96
25130;BME280;13308;50.860;13.664;2023-07-29T14:04:32;96071.84;;;29.40;52.19
25130;BME280;13308;50.860;13.664;2023-07-29T14:06:57;96060.03;;;28.93;51.17
25130;BME280;13308;50.860;13.664;2023-07-29T14:09:23;96070.91;;;29.38;52.59
25130;BME280;13308;50.860;13.664;2023-07-29T14:11:48;96062.50;;;29.25;51.33
25130;BME280;13308;50.860;13.664;2023-07-29T14:14:13;96058.97;;;29.90;49.74
25130;BME280;13308;50.860;13.664;2023-07-29T14:16:39;96067.97;;;30.39;49.34
25130;BME280;13308;50.860;13.664;2023-07-29T14:19:04;96061.06;;;29.89;49.80
25130;BME280;13308;50.860;13.664;2023-07-29T14:21:29;96061.66;;;30.03;49.23
25130;BME280;13308;50.860;13.664;2023-07-29T14:23:55;96053.69;;;29.94;49.54
25130;BME280;13308;50.860;13.664;2023-07-29T14:26:20;96050.28;;;30.03;49.60
25130;BME280;13308;50.860;13.664;2023-07-29T14:28:45;96056.38;;;30.22;48.58
25130;BME280;13308;50.860;13.664;2023-07-29T14:31:11;96053.66;;;29.86;49.66
25130;BME280;13308;50.860;13.664;2023-07-29T14:33:36;96034.13;;;28.20;53.01
25130;BME280;13308;50.860;13.664;2023-07-29T14:36:01;96035.59;;;29.26;52.93
25130;BME280;13308;50.860;13.664;2023-07-29T14:38:29;96041.25;;;29.11;52.78
25130;BME280;13308;50.860;13.664;2023-07-29T14:40:54;96036.22;;;29.90;51.88
25130;BME280;13308;50.860;13.664;2023-07-29T14:43:22;96039.69;;;30.56;52.19
25130;BME280;13308;50.860;13.664;2023-07-29T14:45:47;96048.81;;;30.62;47.14
25130;BME280;13308;50.860;13.664;2023-07-29T14:48:13;96047.78;;;29.77;48.30
25130;BME280;13308;50.860;13.664;2023-07-29T14:50:38;96034.44;;;28.58;51.31
25130;BME280;13308;50.860;13.664;2023-07-29T14:53:03;96038.28;;;27.99;52.53
25130;BME280;13308;50.860;13.664;2023-07-29T14:55:29;96040.19;;;27.50;52.86
25130;BME280;13308;50.860;13.664;2023-07-29T14:57:54;96037.22;;;28.30;51.57
25130;BME280;13308;50.860;13.664;2023-07-29T15:00:19;96042.91;;;28.30;50.82
25130;BME280;13308;50.860;13.664;2023-07-29T15:02:45;96030.22;;;28.51;51.46
25130;BME280;13308;50.860;13.664;2023-07-29T15:05:10;96027.00;;;28.27;52.34
25130;BME280;13308;50.860;13.664;2023-07-29T15:07:35;96042.09;;;28.22;52.12
25130;BME280;13308;50.860;13.664;2023-07-29T15:10:01;96038.94;;;29.09;50.03
25130;BME280;13308;50.860;13.664;2023-07-29T15:12:26;96025.19;;;28.93;50.69
25130;BME280;13308;50.860;13.664;2023-07-29T15:14:51;96029.97;;;29.33;52.63
25130;BME280;13308;50.860;13.664;2023-07-29T15:17:17;96023.50;;;29.91;48.74
25130;BME280;13308;50.860;13.664;2023-07-29T15:19:42;96026.53;;;28.64;50.65
25130;BME280;13308;50.860;13.664;2023-07-29T15:22:07;96029.13;;;29.18;51.96
25130;BME280;13308;50.860;13.664;2023-07-29T15:24:32;96021.25;;;29.39;50.87
25130;BME280;13308;50.860;13.664;2023-07-29T15:26:58;96023.28;;;28.88;50.25
25130;BME280;13308;50.860;13.664;2023-07-29T15:29:23;96017.97;;;29.20;50.49
25130;BME280;13308;50.860;13.664;2023-07-29T15:31:49;96016.06;;;29.65;50.47
25130;BME280;13308;50.860;13.664;2023-07-29T15:34:14;96037.94;;;29.35;49.89
25130;BME280;13308;50.860;13.664;2023-07-29T15:36:40;96032.31;;;28.51;48.50
25130;BME280;13308;50.860;13.664;2023-07-29T15:39:07;96027.53;;;28.74;48.64
25130;BME280;13308;50.860;13.664;2023-07-29T15:41:33;96026.53;;;28.64;48.33
25130;BME280;13308;50.860;13.664;2023-07-29T15:44:01;96045.94;;;28.32;49.64
25130;BME280;13308;50.860;13.664;2023-07-29T15:46:27;96042.81;;;28.02;51.34
25130;BME280;13308;50.860;13.664;2023-07-29T15:48:52;96031.00;;;27.57;50.80
25130;BME280;13308;50.860;13.664;2023-07-29T15:51:17;96023.28;;;26.98;52.93
25130;BME280;13308;50.860;13.664;2023-07-29T15:53:43;96040.50;;;26.61;54.48
25130;BME280;13308;50.860;13.664;2023-07-29T15:56:08;96032.19;;;26.50;54.82
25130;BME280;13308;50.860;13.664;2023-07-29T15:58:33;96038.03;;;26.13;56.14
25130;BME280;13308;50.860;13.664;2023-07-29T16:00:59;96041.25;;;25.54;57.57
25130;BME280;13308;50.860;13.664;2023-07-29T16:03:24;96036.25;;;25.28;58.30
25130;BME280;13308;50.860;13.664;2023-07-29T16:05:50;96045.28;;;25.03;59.37
25130;BME280;13308;50.860;13.664;2023-07-29T16:08:16;96040.94;;;25.02;59.33
25130;BME280;13308;50.860;13.664;2023-07-29T16:10:41;96044.53;;;24.78;59.50
25130;BME280;13308;50.860;13.664;2023-07-29T16:13:07;96046.63;;;24.78;60.33
25130;BME280;13308;50.860;13.664;2023-07-29T16:15:32;96047.09;;;24.82;60.71
25130;BME280;13308;50.860;13.664;2023-07-29T16:17:59;96054.66;;;24.92;60.91
25130;BME280;13308;50.860;13.664;2023-07-29T16:20:25;96046.09;;;24.98;62.27
25130;BME280;13308;50.860;13.664;2023-07-29T16:22:52;96046.03;;;24.61;63.04
25130;BME280;13308;50.860;13.664;2023-07-29T16:25:17;96051.91;;;24.63;63.17
25130;BME280;13308;50.860;13.664;2023-07-29T16:27:43;96051.72;;;24.55;63.77
25130;BME280;13308;50.860;13.664;2023-07-29T16:30:08;96072.31;;;24.45;64.50
25130;BME280;13308;50.860;13.664;2023-07-29T16:32:34;96060.41;;;24.33;64.10
25130;BME280;13308;50.860;13.664;2023-07-29T16:34:59;96063.09;;;24.20;64.93
25130;BME280;13308;50.860;13.664;2023-07-29T16:37:24;96064.72;;;24.40;64.70
25130;BME280;13308;50.860;13.664;2023-07-29T16:39:50;96068.97;;;24.22;65.26
25130;BME280;13308;50.860;13.664;2023-07-29T16:42:15;96063.00;;;24.02;65.33
25130;BME280;13308;50.860;13.664;2023-07-29T16:44:41;96049.44;;;24.00;66.02
25130;BME280;13308;50.860;13.664;2023-07-29T16:47:06;96051.81;;;23.96;66.17
25130;BME280;13308;50.860;13.664;2023-07-29T16:49:32;96063.88;;;23.86;66.47
25130;BME280;13308;50.860;13.664;2023-07-29T16:51:58;96111.28;;;23.87;67.38
25130;BME280;13308;50.860;13.664;2023-07-29T16:54:23;96123.09;;;23.40;64.56
25130;BME280;13308;50.860;13.664;2023-07-29T16:56:48;96140.16;;;22.79;64.90
25130;BME280;13308;50.860;13.664;2023-07-29T16:59:14;96143.81;;;22.19;67.22
25130;BME280;13308;50.860;13.664;2023-07-29T17:01:40;96159.38;;;22.15;68.40
25130;BME280;13308;50.860;13.664;2023-07-29T17:04:05;96153.50;;;22.07;68.90
25130;BME280;13308;50.860;13.664;2023-07-29T17:06:30;96146.88;;;21.88;69.81
25130;BME280;13308;50.860;13.664;2023-07-29T17:08:56;96136.88;;;21.71;70.53
25130;BME280;13308;50.860;13.664;2023-07-29T17:11:21;96150.59;;;21.58;71.69
25130;BME280;13308;50.860;13.664;2023-07-29T17:13:47;96146.97;;;21.41;72.68
25130;BME280;13308;50.860;13.664;2023-07-29T17:16:12;96143.34;;;21.13;75.30
25130;BME280;13308;50.860;13.664;2023-07-29T17:18:37;96152.19;;;21.06;76.45
25130;BME280;13308;50.860;13.664;2023-07-29T17:21:04;96161.09;;;20.93;79.79
25130;BME280;13308;50.860;13.664;2023-07-29T17:23:30;96173.47;;;20.39;83.42
25130;BME280;13308;50.860;13.664;2023-07-29T17:25:55;96185.63;;;20.31;84.33
25130;BME280;13308;50.860;13.664;2023-07-29T17:28:20;96193.94;;;20.20;87.14
25130;BME280;13308;50.860;13.664;2023-07-29T17:30:49;96192.63;;;19.90;89.76
25130;BME280;13308;50.860;13.664;2023-07-29T17:33:16;96203.75;;;19.59;97.10
25130;BME280;13308;50.860;13.664;2023-07-29T17:35:45;96203.19;;;19.15;100.00
25130;BME280;13308;50.860;13.664;2023-07-29T17:38:10;96195.31;;;19.13;100.00
25130;BME280;13308;50.860;13.664;2023-07-29T17:40:36;96197.59;;;18.95;100.00
25130;BME280;13308;50.860;13.664;2023-07-29T17:43:02;96202.19;;;18.78;100.00
25130;BME280;13308;50.860;13.664;2023-07-29T17:45:27;96205.50;;;18.62;100.00
25130;BME280;13308;50.860;13.664;2023-07-29T17:47:53;96206.91;;;18.52;100.00
25130;BME280;13308;50.860;13.664;2023-07-29T17:50:18;96204.59;;;18.51;100.00
25130;BME280;13308;50.860;13.664;2023-07-29T17:52:45;96169.66;;;18.75;100.00
25130;BME280;13308;50.860;13.664;2023-07-29T17:55:11;96168.16;;;18.60;100.00
25130;BME280;13308;50.860;13.664;2023-07-29T17:57:36;96174.72;;;18.57;100.00
25130;BME280;13308;50.860;13.664;2023-07-29T18:00:01;96176.03;;;18.61;100.00
25130;BME280;13308;50.860;13.664;2023-07-29T18:02:33;96173.94;;;18.56;100.00
25130;BME280;13308;50.860;13.664;2023-07-29T18:04:58;96175.88;;;18.50;100.00
25130;BME280;13308;50.860;13.664;2023-07-29T18:07:25;96177.78;;;18.59;100.00